createdAt,value
2018-09-23T00:02:24.066Z,101134.84
2018-09-23T00:04:54.212Z,101129.77
2018-09-23T00:07:24.333Z,101127.30
2018-09-23T00:09:54.458Z,101121.63
2018-09-23T00:12:24.522Z,101104.06
2018-09-23T00:14:54.643Z,101106.31
2018-09-23T00:17:24.755Z,101099.47
2018-09-23T00:19:54.939Z,101086.48
2018-09-23T00:22:25.048Z,101085.55
2018-09-23T00:24:55.184Z,101074.99
2018-09-23T00:27:25.254Z,101075.55
2018-09-23T00:29:55.363Z,101081.80
2018-09-23T00:32:26.127Z,101082.94
2018-09-23T00:34:56.246Z,101072.22
2018-09-23T00:37:26.308Z,101081.61
2018-09-23T00:39:56.372Z,101076.31
2018-09-23T00:42:26.498Z,101077.83
2018-09-23T00:44:56.578Z,101070.34
2018-09-23T00:47:26.657Z,101063.98
2018-09-23T00:49:56.780Z,101054.30
2018-09-23T00:52:26.927Z,101047.23
2018-09-23T00:54:57.022Z,101047.95
2018-09-23T00:57:27.110Z,101059.11
2018-09-23T00:59:57.223Z,101060.57
2018-09-23T01:02:27.362Z,101066.52
2018-09-23T01:04:57.440Z,101057.46
2018-09-23T01:07:27.508Z,101058.55
2018-09-23T01:09:57.713Z,101049.21
2018-09-23T01:12:28.911Z,101050.53
2018-09-23T01:14:59.034Z,101041.02
2018-09-23T01:17:29.110Z,101033.17
2018-09-23T01:19:59.294Z,101028.27
2018-09-23T01:22:29.403Z,101030.06
2018-09-23T01:24:59.513Z,101022.46
2018-09-23T01:27:29.608Z,101024.25
2018-09-23T01:29:59.853Z,101021.08
2018-09-23T01:32:29.938Z,101025.05
2018-09-23T01:34:59.994Z,101019.34
2018-09-23T01:37:30.083Z,101015.91
2018-09-23T01:40:00.247Z,101007.66
2018-09-23T01:42:30.287Z,101005.34
2018-09-23T01:45:00.466Z,100995.19
2018-09-23T01:47:30.551Z,100985.95
2018-09-23T01:50:00.678Z,100976.54
2018-09-23T01:52:30.783Z,100975.08
2018-09-23T01:55:00.912Z,100970.47
2018-09-23T01:57:30.989Z,100966.82
2018-09-23T02:00:01.152Z,100964.59
2018-09-23T02:02:31.264Z,100959.66
2018-09-23T02:05:01.477Z,100955.34
2018-09-23T02:07:31.510Z,100949.80
2018-09-23T02:10:01.634Z,100949.67
2018-09-23T02:12:31.772Z,100944.66
2018-09-23T02:15:01.960Z,100936.73
2018-09-23T02:17:32.018Z,100941.94
2018-09-23T02:20:02.173Z,100941.27
2018-09-23T02:22:32.252Z,100928.20
2018-09-23T02:25:02.345Z,100928.47
2018-09-23T02:27:32.527Z,100925.63
2018-09-23T02:30:02.648Z,100917.38
2018-09-23T02:32:32.751Z,100918.58
2018-09-23T02:35:02.821Z,100920.08
2018-09-23T02:37:32.888Z,100910.65
2018-09-23T02:40:02.992Z,100911.97
2018-09-23T02:42:33.066Z,100910.00
2018-09-23T02:45:03.199Z,100908.92
2018-09-23T02:47:33.319Z,100900.02
2018-09-23T02:50:03.428Z,100898.35
2018-09-23T02:52:33.553Z,100894.59
2018-09-23T02:55:03.801Z,100890.52
2018-09-23T02:57:33.904Z,100892.74
2018-09-23T03:00:04.099Z,100893.83
2018-09-23T03:02:34.207Z,100887.84
2018-09-23T03:05:04.430Z,100884.67
2018-09-23T03:07:34.507Z,100874.92
2018-09-23T03:10:04.643Z,100876.80
2018-09-23T03:12:34.703Z,100873.25
2018-09-23T03:15:04.896Z,100865.33
2018-09-23T03:17:34.994Z,100861.52
2018-09-23T03:20:05.117Z,100867.27
2018-09-23T03:22:35.221Z,100862.16
2018-09-23T03:25:05.431Z,100862.25
2018-09-23T03:27:35.547Z,100854.85
2018-09-23T03:30:05.807Z,100854.06
2018-09-23T03:32:35.922Z,100851.44
2018-09-23T03:35:06.085Z,100857.73
2018-09-23T03:37:36.206Z,100849.04
2018-09-23T03:40:06.432Z,100840.50
2018-09-23T03:42:36.570Z,100828.34
2018-09-23T03:45:06.711Z,100830.02
2018-09-23T03:47:36.812Z,100829.23
2018-09-23T03:50:07.450Z,100830.48
2018-09-23T03:52:37.558Z,100819.45
2018-09-23T03:55:07.711Z,100804.75
2018-09-23T03:57:37.814Z,100798.64
2018-09-23T04:00:08.369Z,100793.24
2018-09-23T04:02:38.411Z,100780.94
2018-09-23T04:05:08.583Z,100772.43
2018-09-23T04:07:38.657Z,100771.06
2018-09-23T04:10:08.809Z,100764.62
2018-09-23T04:12:38.962Z,100763.76
2018-09-23T04:15:09.159Z,100761.28
2018-09-23T04:17:39.228Z,100747.97
2018-09-23T04:20:09.361Z,100738.94
2018-09-23T04:22:55.757Z,100732.37
2018-09-23T04:25:25.863Z,100722.73
2018-09-23T04:27:55.932Z,100732.59
2018-09-23T04:30:26.056Z,100723.77
2018-09-23T04:32:56.191Z,100729.95
2018-09-23T04:35:26.378Z,100729.44
2018-09-23T04:37:56.464Z,100731.55
2018-09-23T04:40:26.522Z,100735.72
2018-09-23T04:42:56.613Z,100743.38
2018-09-23T04:45:26.687Z,100749.40
2018-09-23T04:47:56.819Z,100767.62
2018-09-23T04:50:26.842Z,100757.64
2018-09-23T04:52:56.968Z,100756.64
2018-09-23T04:55:27.138Z,100746.50
2018-09-23T04:57:57.251Z,100750.72
2018-09-23T05:00:27.393Z,100759.98
2018-09-23T05:02:57.463Z,100749.09
2018-09-23T05:05:27.537Z,100742.05
2018-09-23T05:07:57.674Z,100730.86
2018-09-23T05:10:27.852Z,100728.69
2018-09-23T05:12:58.141Z,100723.50
2018-09-23T05:15:28.397Z,100723.72
2018-09-23T05:17:58.457Z,100721.86
2018-09-23T05:20:28.585Z,100706.64
2018-09-23T05:22:58.672Z,100703.30
2018-09-23T05:25:28.835Z,100706.23
2018-09-23T05:27:58.961Z,100698.88
2018-09-23T05:30:29.091Z,100688.55
2018-09-23T05:32:59.135Z,100679.77
2018-09-23T05:35:29.274Z,100700.34
2018-09-23T05:37:59.313Z,100706.64
2018-09-23T05:40:29.397Z,100715.58
2018-09-23T05:42:59.579Z,100712.88
2018-09-23T05:45:29.677Z,100715.89
2018-09-23T05:47:59.987Z,100705.63
2018-09-23T05:50:30.098Z,100691.89
2018-09-23T05:53:00.179Z,100680.86
2018-09-23T05:55:30.305Z,100676.66
2018-09-23T05:58:00.484Z,100683.26
2018-09-23T06:00:33.596Z,100686.09
2018-09-23T06:03:03.747Z,100685.08
2018-09-23T06:05:33.845Z,100679.54
2018-09-23T06:08:03.933Z,100677.59
2018-09-23T06:10:34.027Z,100676.03
2018-09-23T06:13:04.227Z,100673.16
2018-09-23T06:15:34.379Z,100672.77
2018-09-23T06:18:04.465Z,100682.52
2018-09-23T06:20:34.759Z,100684.22
2018-09-23T06:23:04.813Z,100673.02
2018-09-23T06:25:34.993Z,100667.41
2018-09-23T06:28:05.127Z,100664.37
2018-09-23T06:30:35.376Z,100662.98
2018-09-23T06:33:05.501Z,100663.92
2018-09-23T06:35:35.689Z,100663.83
2018-09-23T06:38:05.886Z,100660.41
2018-09-23T06:40:35.977Z,100650.86
2018-09-23T06:43:06.121Z,100640.11
2018-09-23T06:45:36.274Z,100635.84
2018-09-23T06:48:06.347Z,100633.49
2018-09-23T06:50:36.652Z,100640.11
2018-09-23T06:53:06.747Z,100636.34
2018-09-23T06:55:37.058Z,100650.83
2018-09-23T06:58:07.197Z,100665.70
2018-09-23T07:00:37.339Z,100668.11
2018-09-23T07:03:07.597Z,100673.88
2018-09-23T07:05:37.713Z,100676.19
2018-09-23T07:08:08.048Z,100667.17
2018-09-23T07:10:38.152Z,100659.68
2018-09-23T07:13:08.405Z,100649.56
2018-09-23T07:15:38.485Z,100652.89
2018-09-23T07:18:08.633Z,100654.92
2018-09-23T07:20:38.698Z,100655.50
2018-09-23T07:23:08.813Z,100638.33
2018-09-23T07:25:38.980Z,100630.20
2018-09-23T07:28:09.124Z,100628.03
2018-09-23T07:30:39.490Z,100633.58
2018-09-23T07:33:09.612Z,100641.38
2018-09-23T07:35:39.736Z,100651.67
2018-09-23T07:38:09.840Z,100647.88
2018-09-23T07:40:39.970Z,100635.80
2018-09-23T07:43:10.059Z,100623.58
2018-09-23T07:45:40.193Z,100601.81
2018-09-23T07:48:10.325Z,100596.47
2018-09-23T07:50:40.392Z,100586.78
2018-09-23T07:53:10.498Z,100582.52
2018-09-23T07:55:40.599Z,100572.14
2018-09-23T07:58:10.667Z,100565.72
2018-09-23T08:00:40.841Z,100577.12
2018-09-23T08:03:11.333Z,100584.23
2018-09-23T08:05:41.526Z,100573.55
2018-09-23T08:08:11.728Z,100571.66
2018-09-23T08:10:41.918Z,100576.97
2018-09-23T08:13:12.222Z,100582.09
2018-09-23T08:15:42.383Z,100585.38
2018-09-23T08:18:12.614Z,100584.25
2018-09-23T08:20:42.771Z,100581.34
2018-09-23T08:23:12.977Z,100580.88
2018-09-23T08:25:43.522Z,100579.20
2018-09-23T08:28:13.664Z,100573.55
2018-09-23T08:30:43.853Z,100580.49
2018-09-23T08:33:13.976Z,100591.76
2018-09-23T08:35:44.662Z,100589.83
2018-09-23T08:38:15.252Z,100587.39
2018-09-23T08:40:46.301Z,100591.76
2018-09-23T08:43:16.504Z,100593.56
2018-09-23T08:45:46.908Z,100591.93
2018-09-23T08:48:17.108Z,100594.15
2018-09-23T08:50:47.278Z,100590.09
2018-09-23T08:53:17.502Z,100581.91
2018-09-23T08:55:47.649Z,100573.14
2018-09-23T08:58:17.793Z,100556.20
2018-09-23T09:00:47.909Z,100530.71
2018-09-23T09:03:18.029Z,100519.17
2018-09-23T09:05:48.273Z,100514.39
2018-09-23T09:08:18.906Z,100513.03
2018-09-23T09:10:49.040Z,100515.67
2018-09-23T09:13:19.085Z,100514.09
2018-09-23T09:15:49.207Z,100522.53
2018-09-23T09:18:19.350Z,100510.99
2018-09-23T09:20:49.417Z,100514.07
2018-09-23T09:23:19.525Z,100512.63
2018-09-23T09:25:49.749Z,100507.16
2018-09-23T09:28:19.808Z,100507.53
2018-09-23T09:30:50.210Z,100521.63
2018-09-23T09:33:20.279Z,100517.31
2018-09-23T09:35:50.491Z,100504.85
2018-09-23T09:38:20.569Z,100501.11
2018-09-23T09:40:50.759Z,100487.91
2018-09-23T09:43:21.012Z,100469.39
2018-09-23T09:45:51.156Z,100447.44
2018-09-23T09:48:21.248Z,100433.79
2018-09-23T09:50:51.396Z,100427.44
2018-09-23T09:53:21.478Z,100423.97
2018-09-23T09:55:51.614Z,100410.30
2018-09-23T09:58:21.705Z,100399.67
2018-09-23T10:00:51.818Z,100398.25
2018-09-23T10:03:21.993Z,100416.40
2018-09-23T10:05:52.122Z,100428.20
2018-09-23T10:08:22.202Z,100426.41
2018-09-23T10:10:52.349Z,100419.22
2018-09-23T10:13:22.460Z,100416.31
2018-09-23T10:15:52.605Z,100418.05
2018-09-23T10:18:22.717Z,100420.25
2018-09-23T10:20:52.936Z,100408.38
2018-09-23T10:23:23.100Z,100411.09
2018-09-23T10:25:53.128Z,100412.12
2018-09-23T10:28:23.272Z,100426.64
2018-09-23T10:30:53.481Z,100426.34
2018-09-23T10:33:23.537Z,100430.02
2018-09-23T10:35:53.724Z,100426.53
2018-09-23T10:38:23.790Z,100426.66
2018-09-23T10:40:54.039Z,100431.20
2018-09-23T10:43:24.367Z,100429.86
2018-09-23T10:45:54.668Z,100436.38
2018-09-23T10:48:24.964Z,100435.28
2018-09-23T10:50:55.275Z,100424.30
2018-09-23T10:53:25.558Z,100420.81
2018-09-23T10:55:55.739Z,100427.97
2018-09-23T10:58:26.028Z,100438.79
2018-09-23T11:00:56.208Z,100423.50
2018-09-23T11:03:26.444Z,100429.53
2018-09-23T11:05:56.660Z,100452.91
2018-09-23T11:08:26.808Z,100464.48
2018-09-23T11:10:56.960Z,100416.17
2018-09-23T11:13:27.079Z,100364.27
2018-09-23T11:15:57.244Z,100344.34
2018-09-23T11:18:27.338Z,100332.51
2018-09-23T11:20:57.515Z,100352.14
2018-09-23T11:23:27.692Z,100341.11
2018-09-23T11:25:57.918Z,100357.19
2018-09-23T11:28:28.254Z,100352.63
2018-09-23T11:30:58.443Z,100352.95
2018-09-23T11:33:28.567Z,100350.76
2018-09-23T11:35:58.669Z,100298.18
2018-09-23T11:38:28.797Z,100314.13
2018-09-23T11:40:59.252Z,100346.47
2018-09-23T11:43:29.420Z,100339.14
2018-09-23T11:45:59.558Z,100290.94
2018-09-23T11:48:29.698Z,100260.55
2018-09-23T11:50:59.827Z,100234.24
2018-09-23T11:53:29.912Z,100228.98
2018-09-23T11:56:00.159Z,100259.97
2018-09-23T11:58:30.477Z,100277.98
2018-09-23T12:01:00.568Z,100305.56
2018-09-23T12:03:30.605Z,100346.16
2018-09-23T12:06:00.763Z,100366.17
2018-09-23T12:08:30.971Z,100358.27
2018-09-23T12:11:01.280Z,100359.22
2018-09-23T12:13:31.475Z,100349.50
2018-09-23T12:16:01.734Z,100343.79
2018-09-23T12:18:31.810Z,100345.17
2018-09-23T12:21:01.967Z,100361.50
2018-09-23T12:23:32.087Z,100401.05
2018-09-23T12:26:02.197Z,100411.86
2018-09-23T12:28:32.379Z,100444.88
2018-09-23T12:31:02.529Z,100459.09
2018-09-23T12:33:32.705Z,100473.61
2018-09-23T12:36:03.079Z,100490.09
2018-09-23T12:38:34.542Z,100512.45
2018-09-23T12:41:04.751Z,100515.85
2018-09-23T12:43:34.949Z,100466.23
2018-09-23T12:46:05.208Z,100402.23
2018-09-23T12:48:35.700Z,100371.80
2018-09-23T12:51:06.018Z,100368.75
2018-09-23T12:53:36.570Z,100372.11
2018-09-23T12:56:07.784Z,100353.14
2018-09-23T12:58:38.652Z,100343.89
2018-09-23T13:01:09.119Z,100357.95
2018-09-23T13:03:40.268Z,100364.49
2018-09-23T13:06:11.081Z,100388.81
2018-09-23T13:08:42.106Z,100372.11
2018-09-23T13:11:12.659Z,100380.88
2018-09-23T13:13:42.768Z,100364.12
2018-09-23T13:16:12.972Z,100372.58
2018-09-23T13:18:43.227Z,100376.14
2018-09-23T13:21:13.465Z,100366.41
2018-09-23T13:23:43.660Z,100366.17
2018-09-23T13:26:13.836Z,100342.28
2018-09-23T13:28:43.956Z,100367.02
2018-09-23T13:31:14.183Z,100379.21
2018-09-23T13:33:44.312Z,100370.50
2018-09-23T13:36:14.420Z,100385.73
2018-09-23T13:38:44.609Z,100393.37
2018-09-23T13:41:14.815Z,100414.87
2018-09-23T13:43:45.037Z,100392.22
2018-09-23T13:46:15.165Z,100388.49
2018-09-23T13:48:45.309Z,100429.68
2018-09-23T13:51:15.556Z,100422.45
2018-09-23T13:53:45.753Z,100440.23
2018-09-23T13:56:16.021Z,100462.57
2018-09-23T13:58:46.177Z,100467.06
2018-09-23T14:01:16.332Z,100460.18
2018-09-23T14:03:46.434Z,100479.75
2018-09-23T14:06:16.656Z,100510.00
2018-09-23T14:08:46.830Z,100503.95
2018-09-23T14:11:17.229Z,100517.70
2018-09-23T14:13:47.435Z,100527.31
2018-09-23T14:16:17.741Z,100530.58
2018-09-23T14:18:47.940Z,100529.00
2018-09-23T14:21:18.292Z,100525.39
2018-09-23T14:23:48.452Z,100531.86
2018-09-23T14:26:18.763Z,100539.17
2018-09-23T14:28:48.977Z,100530.62
2018-09-23T14:31:19.310Z,100537.84
2018-09-23T14:33:49.543Z,100543.06
2018-09-23T14:36:19.844Z,100555.87
2018-09-23T14:38:50.243Z,100567.89
2018-09-23T14:41:20.479Z,100558.67
2018-09-23T14:43:50.622Z,100582.31
2018-09-23T14:46:20.842Z,100567.79
2018-09-23T14:48:51.107Z,100562.73
2018-09-23T14:51:21.362Z,100590.50
2018-09-23T14:53:52.015Z,100560.05
2018-09-23T14:56:22.415Z,100582.11
2018-09-23T14:58:53.005Z,100602.79
2018-09-23T15:01:23.842Z,100611.15
2018-09-23T15:03:54.688Z,100597.21
2018-09-23T15:06:24.943Z,100588.30
2018-09-23T15:08:55.091Z,100608.41
2018-09-23T15:11:25.694Z,100624.88
2018-09-23T15:13:56.012Z,100638.33
2018-09-23T15:16:26.197Z,100634.48
2018-09-23T15:18:56.286Z,100652.45
2018-09-23T15:21:26.448Z,100656.47
2018-09-23T15:23:57.111Z,100672.67
2018-09-23T15:26:28.311Z,100682.70
2018-09-23T15:28:58.731Z,100695.56
2018-09-23T15:31:28.877Z,100692.59
2018-09-23T15:33:58.963Z,100681.44
2018-09-23T15:36:29.094Z,100671.39
2018-09-23T15:38:59.237Z,100658.86
2018-09-23T15:41:29.325Z,100662.40
2018-09-23T15:43:59.495Z,100661.67
2018-09-23T15:46:30.498Z,100658.06
2018-09-23T15:49:00.588Z,100652.98
2018-09-23T15:51:30.707Z,100678.31
2018-09-23T15:54:00.778Z,100694.98
2018-09-23T15:56:30.903Z,100716.21
2018-09-23T15:59:00.981Z,100732.41
2018-09-23T16:01:31.098Z,100741.25
2018-09-23T16:04:01.498Z,100749.27
2018-09-23T16:06:31.630Z,100766.30
2018-09-23T16:09:01.767Z,100776.58
2018-09-23T16:11:31.946Z,100783.91
2018-09-23T16:14:02.163Z,100796.16
2018-09-23T16:16:32.296Z,100809.63
2018-09-23T16:19:02.391Z,100830.10
2018-09-23T16:21:32.540Z,100835.71
2018-09-23T16:24:02.816Z,100844.92
2018-09-23T16:26:37.013Z,100858.10
2018-09-23T16:29:07.334Z,100862.26
2018-09-23T16:31:37.446Z,100871.62
2018-09-23T16:34:07.577Z,100882.05
2018-09-23T16:36:37.733Z,100882.01
2018-09-23T16:39:10.203Z,100887.44
2018-09-23T16:41:40.375Z,100886.14
2018-09-23T16:44:11.330Z,100899.37
2018-09-23T16:46:41.583Z,100901.56
2018-09-23T16:49:11.751Z,100911.52
2018-09-23T16:51:41.949Z,100917.81
2018-09-23T16:54:12.225Z,100929.04
2018-09-23T16:56:42.446Z,100930.13
2018-09-23T16:59:12.596Z,100943.31
2018-09-23T17:01:42.830Z,100945.02
2018-09-23T17:04:13.096Z,100953.86
2018-09-23T17:06:43.259Z,100965.39
2018-09-23T17:09:13.493Z,100971.00
2018-09-23T17:11:43.697Z,100980.81
2018-09-23T17:14:13.925Z,100984.47
2018-09-23T17:16:44.225Z,101003.22
2018-09-23T17:19:14.502Z,101011.64
2018-09-23T17:21:44.790Z,101015.77
2018-09-23T17:24:14.878Z,101025.22
2018-09-23T17:26:45.014Z,101040.59
2018-09-23T17:29:15.108Z,101049.55
2018-09-23T17:31:45.312Z,101065.00
2018-09-23T17:34:15.486Z,101080.86
2018-09-23T17:36:45.757Z,101089.64
2018-09-23T17:39:15.938Z,101096.63
2018-09-23T17:41:46.099Z,101108.22
2018-09-23T17:44:16.195Z,101113.30
2018-09-23T17:46:46.645Z,101122.02
2018-09-23T17:49:16.885Z,101127.17
2018-09-23T17:51:47.110Z,101139.55
2018-09-23T17:54:17.249Z,101138.11
2018-09-23T17:59:22.835Z,101154.86
2018-09-23T18:02:00.031Z,101164.39
2018-09-23T18:04:31.915Z,101172.06
2018-09-23T18:07:02.079Z,101185.55
2018-09-23T18:09:32.263Z,101196.25
2018-09-23T18:12:02.318Z,101207.58
2018-09-23T18:14:32.400Z,101209.58
2018-09-23T18:17:02.564Z,101221.69
2018-09-23T18:19:32.662Z,101233.01
2018-09-23T18:22:02.747Z,101240.80
2018-09-23T18:24:32.788Z,101247.66
2018-09-23T18:27:02.938Z,101253.42
2018-09-23T18:29:33.095Z,101265.67
2018-09-23T18:32:03.191Z,101274.01
2018-09-23T18:34:33.331Z,101279.17
2018-09-23T18:37:03.477Z,101282.52
2018-09-23T18:39:33.635Z,101288.51
2018-09-23T18:42:03.767Z,101297.20
2018-09-23T18:44:33.917Z,101300.26
2018-09-23T18:47:04.565Z,101295.84
2018-09-23T18:49:34.703Z,101309.73
2018-09-23T18:52:04.825Z,101315.54
2018-09-23T18:54:40.011Z,101315.15
2018-09-23T18:57:10.119Z,101332.98
2018-09-23T18:59:40.273Z,101342.36
2018-09-23T19:02:10.614Z,101345.35
2018-09-23T19:04:40.741Z,101349.27
2018-09-23T19:07:10.893Z,101358.27
2018-09-23T19:09:40.982Z,101381.20
2018-09-23T19:12:11.396Z,101382.63
2018-09-23T19:14:41.551Z,101387.00
2018-09-23T19:17:11.712Z,101395.66
2018-09-23T19:19:46.838Z,101389.77
2018-09-23T19:22:22.074Z,101394.48
2018-09-23T19:24:52.327Z,101401.20
2018-09-23T19:27:22.480Z,101410.78
2018-09-23T19:29:52.551Z,101421.92
2018-09-23T19:32:22.690Z,101434.47
2018-09-23T19:34:52.770Z,101455.58
2018-09-23T19:37:22.859Z,101466.12
2018-09-23T19:39:52.970Z,101477.09
2018-09-23T19:42:23.099Z,101488.71
2018-09-23T19:44:53.525Z,101485.61
2018-09-23T19:47:23.711Z,101488.22
2018-09-23T19:49:53.764Z,101493.52
2018-09-23T19:52:23.872Z,101510.49
2018-09-23T19:55:01.216Z,101509.05
2018-09-23T19:57:31.824Z,101516.41
2018-09-23T20:00:02.053Z,101515.92
2018-09-23T20:02:32.308Z,101523.95
2018-09-23T20:05:02.455Z,101518.16
2018-09-23T20:07:32.634Z,101521.40
2018-09-23T20:10:02.833Z,101525.63
2018-09-23T20:12:32.977Z,101532.67
2018-09-23T20:15:03.171Z,101540.26
2018-09-23T20:17:33.352Z,101547.22
2018-09-23T20:20:03.455Z,101552.17
2018-09-23T20:22:33.573Z,101556.18
2018-09-23T20:25:03.727Z,101566.26
2018-09-23T20:27:33.849Z,101571.44
2018-09-23T20:30:04.043Z,101569.23
2018-09-23T20:32:34.295Z,101584.43
2018-09-23T20:35:05.512Z,101590.62
2018-09-23T20:37:35.995Z,101602.95
2018-09-23T20:40:06.376Z,101614.51
2018-09-23T20:42:36.479Z,101629.55
2018-09-23T20:45:07.132Z,101635.38
2018-09-23T20:47:37.296Z,101639.06
2018-09-23T20:50:07.521Z,101642.85
2018-09-23T20:52:37.614Z,101641.89
2018-09-23T20:55:07.944Z,101645.48
2018-09-23T20:57:38.076Z,101649.89
2018-09-23T21:00:08.254Z,101653.84
2018-09-23T21:02:38.361Z,101663.87
2018-09-23T21:05:08.845Z,101669.70
2018-09-23T21:07:38.960Z,101676.04
2018-09-23T21:10:09.078Z,101681.28
2018-09-23T21:12:39.361Z,101682.60
2018-09-23T21:15:09.991Z,101688.45
2018-09-23T21:17:40.180Z,101693.45
2018-09-23T21:20:10.283Z,101706.30
2018-09-23T21:22:40.410Z,101712.97
2018-09-23T21:25:10.467Z,101725.40
2018-09-23T21:27:40.595Z,101725.58
2018-09-23T21:30:10.715Z,101740.55
2018-09-23T21:32:40.847Z,101740.38
2018-09-23T21:35:10.957Z,101747.23
2018-09-23T21:37:41.074Z,101745.89
2018-09-23T21:40:11.135Z,101756.14
2018-09-23T21:42:41.205Z,101760.59
2018-09-23T21:45:11.346Z,101762.19
2018-09-23T21:47:41.456Z,101762.28
2018-09-23T21:50:11.711Z,101763.36
2018-09-23T21:52:41.764Z,101769.39
2018-09-23T21:55:11.832Z,101779.00
2018-09-23T21:57:42.093Z,101779.09
2018-09-23T22:00:12.381Z,101785.45
2018-09-23T22:02:42.497Z,101789.36
2018-09-23T22:05:12.608Z,101783.02
2018-09-23T22:07:42.749Z,101785.80
2018-09-23T22:10:12.831Z,101794.81
2018-09-23T22:12:42.911Z,101803.70
2018-09-23T22:15:16.998Z,101809.86
2018-09-23T22:17:47.085Z,101815.20
2018-09-23T22:20:17.184Z,101820.54
2018-09-23T22:22:47.464Z,101815.81
2018-09-23T22:25:17.551Z,101822.85
2018-09-23T22:27:47.700Z,101833.06
2018-09-23T22:30:17.930Z,101835.70
2018-09-23T22:32:48.070Z,101841.06
2018-09-23T22:35:18.190Z,101847.11
2018-09-23T22:37:48.395Z,101852.38
2018-09-23T22:40:18.596Z,101860.38
2018-09-23T22:42:48.827Z,101866.57
2018-09-23T22:45:18.996Z,101863.87
2018-09-23T22:47:49.103Z,101872.48
2018-09-23T22:50:19.219Z,101882.27
2018-09-23T22:52:49.302Z,101893.64
2018-09-23T22:55:19.594Z,101888.91
2018-09-23T22:57:49.740Z,101896.02
2018-09-23T23:00:20.000Z,101909.16
2018-09-23T23:02:50.251Z,101904.38
2018-09-23T23:05:20.391Z,101911.06
2018-09-23T23:07:50.605Z,101914.44
2018-09-23T23:10:20.807Z,101914.77
2018-09-23T23:12:51.136Z,101917.52
2018-09-23T23:15:21.506Z,101920.61
2018-09-23T23:17:51.685Z,101928.56
2018-09-23T23:20:21.881Z,101933.82
2018-09-23T23:22:52.032Z,101932.56
2018-09-23T23:25:22.285Z,101940.80
2018-09-23T23:27:52.484Z,101940.56
2018-09-23T23:30:22.620Z,101951.49
2018-09-23T23:32:52.883Z,101952.08
2018-09-23T23:35:23.004Z,101960.53
2018-09-23T23:37:53.148Z,101962.30
2018-09-23T23:40:23.232Z,101967.55
2018-09-23T23:42:53.438Z,101984.14
2018-09-23T23:45:23.538Z,101982.47
2018-09-23T23:47:53.697Z,101989.13
2018-09-23T23:50:24.829Z,101994.39
2018-09-23T23:52:55.089Z,102000.63
2018-09-23T23:55:25.145Z,102001.03
2018-09-23T23:57:55.310Z,102001.48
